< < Back
Terminal Aerodrome Forecast


Current Version              Previous Versions:   1  2  3  4  5  6  7  8  9  

Terminal Aerodrome Forecast

535
FTUS42 KTAE 232300
TAFVLD
TAF
KVLD 232320Z 2400/2424 00000KT P6SM SCT250
     FM241500 05005KT P6SM BKN250=



Latest METAR

403
SAUS70 KWBC 250400 RRK
MTRVLD
METAR KVLD 250353Z AUTO 00000KT 10SM CLR 09/07 A3002 RMK AO2 SLP175
T00940067


USA.gov is the U.S. government's official web portal to all federal, state and local government web resources and services.